Rembrandt, Iowa
Current Conditions -  °F | °C
As of 5:55 PM on Friday 28 Nov 2014 (Local Time) from KSLB Reporting Station
Haze Haze  
Wind Chill: 20°   Ceiling: Unl
Heat Index: 28°   Visibility: 6mi
Dew Point: 27°   Wind: 8mph
Humidity: 93%   Direction: 130°SE
Pressure: 29.7"   Gusts: NA
Location:  42.83°N, 95.17°W
Report Text: KSLB 282355Z AUTO 13007KT 6SM BR CLR M02/M03 A2970 RMK AO2
Loading
Personal Weather Stations






























Interactive Weather Map New forecast layout! Learn more

10-Day Weather Forecast

Advertisements
Track Severe Weather on mobile